createdAt,value
2018-02-20T00:00:23.896Z,99989.55
2018-02-20T00:02:50.215Z,99975.69
2018-02-20T00:05:16.543Z,99981.03
2018-02-20T00:07:42.838Z,99983.49
2018-02-20T00:10:09.110Z,99980.89
2018-02-20T00:12:35.382Z,99982.94
2018-02-20T00:15:02.408Z,99977.40
2018-02-20T00:17:28.687Z,99971.37
2018-02-20T00:19:54.972Z,99977.05
2018-02-20T00:22:21.965Z,99978.80
2018-02-20T00:24:48.247Z,99977.41
2018-02-20T00:27:14.536Z,99970.58
2018-02-20T00:29:40.814Z,99972.26
2018-02-20T00:32:07.814Z,99972.73
2018-02-20T00:34:34.081Z,99966.56
2018-02-20T00:37:00.342Z,99970.77
2018-02-20T00:39:26.630Z,99967.75
2018-02-20T00:41:52.882Z,99956.22
2018-02-20T00:44:19.914Z,99960.45
2018-02-20T00:46:46.168Z,99964.38
2018-02-20T00:49:12.428Z,99960.00
2018-02-20T00:51:38.695Z,99966.94
2018-02-20T00:54:04.970Z,99966.86
2018-02-20T00:56:31.245Z,99968.24
2018-02-20T00:58:57.514Z,99968.55
2018-02-20T01:01:24.550Z,99964.32
2018-02-20T01:03:50.840Z,99960.80
2018-02-20T01:06:17.089Z,99967.36
2018-02-20T01:08:43.349Z,99970.09
2018-02-20T01:11:10.359Z,99971.41
2018-02-20T01:13:36.668Z,99973.09
2018-02-20T01:16:02.955Z,99968.79
2018-02-20T01:18:29.265Z,99968.92
2018-02-20T01:20:55.524Z,99965.29
2018-02-20T01:23:21.854Z,99971.88
2018-02-20T01:25:48.141Z,99971.43
2018-02-20T01:28:14.443Z,99969.72
2018-02-20T01:30:40.710Z,99970.91
2018-02-20T01:33:06.991Z,99969.17
2018-02-20T01:35:33.251Z,99968.77
2018-02-20T01:37:59.531Z,99946.72
2018-02-20T01:40:26.548Z,99973.75
2018-02-20T01:42:52.800Z,99965.28
2018-02-20T01:45:19.780Z,99963.47
2018-02-20T01:47:46.051Z,99963.77
2018-02-20T01:50:12.419Z,99966.09
2018-02-20T01:52:39.409Z,99961.30
2018-02-20T01:55:05.693Z,99971.20
2018-02-20T01:57:32.700Z,99961.38
2018-02-20T01:59:58.991Z,99972.74
2018-02-20T02:02:25.348Z,99968.14
2018-02-20T02:04:51.702Z,99972.49
2018-02-20T02:07:18.045Z,99969.46
2018-02-20T02:09:44.302Z,99965.16
2018-02-20T02:12:11.331Z,99960.77
2018-02-20T02:14:37.612Z,99972.83
2018-02-20T02:17:03.890Z,99972.83
2018-02-20T02:19:30.936Z,99971.98
2018-02-20T02:21:57.207Z,99978.13
2018-02-20T02:24:23.475Z,99977.05
2018-02-20T02:26:49.705Z,99976.95
2018-02-20T02:29:15.960Z,99976.14
2018-02-20T02:31:42.256Z,99976.31
2018-02-20T02:34:08.516Z,99974.30
2018-02-20T02:36:35.718Z,99970.78
2018-02-20T02:39:02.055Z,99974.20
2018-02-20T02:41:28.320Z,99975.05
2018-02-20T02:43:54.580Z,99973.17
2018-02-20T02:46:20.896Z,99977.48
2018-02-20T02:48:47.902Z,99975.64
2018-02-20T02:51:14.155Z,99976.33
2018-02-20T02:53:40.406Z,99975.42
2018-02-20T02:56:06.687Z,99976.33
2018-02-20T02:58:32.932Z,99978.58
2018-02-20T03:00:59.171Z,99978.02
2018-02-20T03:03:25.444Z,99979.30
2018-02-20T03:05:51.721Z,99973.59
2018-02-20T03:08:17.949Z,99978.34
2018-02-20T03:10:44.208Z,99977.32
2018-02-20T03:13:11.222Z,99979.03
2018-02-20T03:15:37.471Z,99976.52
2018-02-20T03:18:03.773Z,99974.26
2018-02-20T03:20:30.100Z,99968.27
2018-02-20T03:22:56.413Z,99980.22
2018-02-20T03:25:22.674Z,99974.27
2018-02-20T03:27:48.953Z,99981.13
2018-02-20T03:30:15.218Z,99980.57
2018-02-20T03:32:41.548Z,99980.50
2018-02-20T03:35:07.841Z,99976.19
2018-02-20T03:37:34.122Z,99975.42
2018-02-20T03:40:00.376Z,99976.78
2018-02-20T03:42:26.701Z,99981.09
2018-02-20T03:44:53.101Z,99973.17
2018-02-20T03:47:19.420Z,99985.19
2018-02-20T03:49:46.112Z,99979.00
2018-02-20T03:52:12.412Z,99981.02
2018-02-20T03:54:38.676Z,99978.39
2018-02-20T03:57:05.726Z,99987.92
2018-02-20T03:59:32.722Z,99985.95
2018-02-20T04:01:59.011Z,99982.16
2018-02-20T04:04:26.022Z,99984.27
2018-02-20T04:06:52.309Z,99984.64
2018-02-20T04:09:18.555Z,99979.88
2018-02-20T04:11:44.852Z,99976.09
2018-02-20T04:14:11.133Z,99978.50
2018-02-20T04:16:37.409Z,99980.46
2018-02-20T04:19:04.748Z,99975.05
2018-02-20T04:21:31.009Z,99977.66
2018-02-20T04:23:57.361Z,99972.42
2018-02-20T04:26:23.671Z,99979.48
2018-02-20T04:28:50.007Z,99966.20
2018-02-20T04:31:16.408Z,99962.91
2018-02-20T04:33:42.655Z,99971.51
2018-02-20T04:36:09.633Z,99976.60
2018-02-20T04:38:35.884Z,99969.56
2018-02-20T04:41:02.226Z,99965.61
2018-02-20T04:43:28.492Z,99968.86
2018-02-20T04:45:54.740Z,99962.38
2018-02-20T04:48:20.992Z,99973.20
2018-02-20T04:50:47.264Z,99964.44
2018-02-20T04:53:14.232Z,99965.05
2018-02-20T04:55:40.548Z,99964.44
2018-02-20T04:58:07.535Z,99971.88
2018-02-20T05:00:33.759Z,99964.22
2018-02-20T05:03:00.000Z,99970.49
2018-02-20T05:05:26.275Z,99977.43
2018-02-20T05:07:53.295Z,99971.34
2018-02-20T05:10:19.590Z,99972.69
2018-02-20T05:12:45.840Z,99975.38
2018-02-20T05:15:12.093Z,99969.62
2018-02-20T05:17:38.326Z,99964.30
2018-02-20T05:20:04.623Z,99976.54
2018-02-20T05:22:30.907Z,99971.83
2018-02-20T05:24:57.939Z,99970.69
2018-02-20T05:27:24.940Z,99979.52
2018-02-20T05:29:51.215Z,99967.92
2018-02-20T05:32:17.486Z,99977.66
2018-02-20T05:34:43.747Z,99973.36
2018-02-20T05:37:10.006Z,99979.60
2018-02-20T05:39:36.259Z,99986.35
2018-02-20T05:42:02.516Z,99979.38
2018-02-20T05:44:28.769Z,99984.80
2018-02-20T05:46:55.018Z,99981.37
2018-02-20T05:49:21.256Z,99984.77
2018-02-20T05:51:48.244Z,99987.94
2018-02-20T05:54:14.485Z,99991.16
2018-02-20T05:56:40.780Z,99990.39
2018-02-20T05:59:07.786Z,99996.43
2018-02-20T06:01:34.150Z,99992.57
2018-02-20T06:04:01.166Z,99999.81
2018-02-20T06:06:27.448Z,99998.98
2018-02-20T06:08:53.725Z,100002.12
2018-02-20T06:11:20.009Z,99998.02
2018-02-20T06:13:46.254Z,100005.05
2018-02-20T06:16:12.491Z,100004.78
2018-02-20T06:18:38.752Z,100005.66
2018-02-20T06:21:05.024Z,100007.25
2018-02-20T06:23:31.261Z,100008.92
2018-02-20T06:25:57.517Z,100007.05
2018-02-20T06:28:23.766Z,100011.00
2018-02-20T06:30:49.985Z,100014.98
2018-02-20T06:33:16.223Z,100011.38
2018-02-20T06:35:42.511Z,100013.42
2018-02-20T06:38:08.750Z,100017.59
2018-02-20T06:40:35.000Z,100024.98
2018-02-20T06:43:01.252Z,100021.96
2018-02-20T06:45:27.511Z,100023.20
2018-02-20T06:47:53.760Z,100021.27
2018-02-20T06:50:20.030Z,100025.40
2018-02-20T06:52:46.314Z,100023.03
2018-02-20T06:55:12.648Z,100024.14
2018-02-20T06:57:38.888Z,100031.83
2018-02-20T07:00:05.176Z,100025.92
2018-02-20T07:02:32.194Z,100021.00
2018-02-20T07:04:58.437Z,100020.41
2018-02-20T07:07:24.681Z,100019.46
2018-02-20T07:09:51.673Z,100022.11
2018-02-20T07:12:17.960Z,100021.47
2018-02-20T07:14:44.933Z,100026.05
2018-02-20T07:17:11.169Z,100030.16
2018-02-20T07:19:37.541Z,100022.21
2018-02-20T07:22:03.821Z,100025.36
2018-02-20T07:24:30.057Z,100029.17
2018-02-20T07:26:56.307Z,100026.08
2018-02-20T07:29:22.606Z,100027.36
2018-02-20T07:31:48.917Z,100032.73
2018-02-20T07:34:15.924Z,100024.77
2018-02-20T07:36:42.156Z,100043.22
2018-02-20T07:39:08.422Z,100027.83
2018-02-20T07:41:35.427Z,100022.16
2018-02-20T07:44:01.666Z,100025.17
2018-02-20T07:46:27.944Z,100027.98
2018-02-20T07:48:54.204Z,100028.59
2018-02-20T07:51:20.470Z,100027.97
2018-02-20T07:53:46.692Z,100033.48
2018-02-20T07:56:12.927Z,100024.81
2018-02-20T07:58:39.210Z,100029.78
2018-02-20T08:01:05.530Z,100030.66
2018-02-20T08:03:31.779Z,100031.88
2018-02-20T08:05:58.064Z,100031.47
2018-02-20T08:08:25.046Z,100036.56
2018-02-20T08:10:51.330Z,100035.20
2018-02-20T08:13:17.557Z,100032.17
2018-02-20T08:15:43.827Z,100024.33
2018-02-20T08:18:10.065Z,100029.50
2018-02-20T08:20:36.333Z,100030.80
2018-02-20T08:23:02.588Z,100032.38
2018-02-20T08:25:29.638Z,100035.79
2018-02-20T08:27:56.653Z,100036.60
2018-02-20T08:30:22.947Z,100045.88
2018-02-20T08:32:49.231Z,100048.96
2018-02-20T08:35:15.515Z,100044.32
2018-02-20T08:37:41.797Z,100044.23
2018-02-20T08:40:08.810Z,100037.95
2018-02-20T08:42:35.069Z,100045.36
2018-02-20T08:45:01.363Z,100041.60
2018-02-20T08:47:28.395Z,100035.15
2018-02-20T08:49:54.688Z,100040.95
2018-02-20T08:52:21.680Z,100029.53
2018-02-20T08:54:47.968Z,100037.25
2018-02-20T08:57:14.992Z,100034.12
2018-02-20T08:59:41.274Z,100032.45
2018-02-20T09:02:07.524Z,100033.84
2018-02-20T09:04:33.770Z,100030.98
2018-02-20T09:07:00.027Z,100029.67
2018-02-20T09:09:27.000Z,100025.52
2018-02-20T09:11:53.272Z,100027.03
2018-02-20T09:14:19.568Z,100029.30
2018-02-20T09:16:45.825Z,100031.07
2018-02-20T09:19:12.102Z,100021.62
2018-02-20T09:21:39.079Z,100020.17
2018-02-20T09:24:05.356Z,100010.48
2018-02-20T09:26:31.633Z,100014.72
2018-02-20T09:28:57.929Z,100022.58
2018-02-20T09:31:24.945Z,100016.52
2018-02-20T09:33:51.167Z,100016.20
2018-02-20T09:36:17.467Z,100021.22
2018-02-20T09:38:43.804Z,100020.59
2018-02-20T09:43:42.409Z,100018.19
2018-02-20T09:46:08.673Z,100021.50
2018-02-20T09:48:34.889Z,100005.80
2018-02-20T09:53:34.112Z,100013.50
2018-02-20T09:56:00.380Z,100015.32
2018-02-20T09:58:27.430Z,100011.79
2018-02-20T10:00:54.470Z,100013.58
2018-02-20T10:03:21.468Z,100011.61
2018-02-20T10:05:47.812Z,100012.44
2018-02-20T10:08:14.045Z,100019.31
2018-02-20T10:10:40.335Z,100012.89
2018-02-20T10:13:06.588Z,100013.83
2018-02-20T10:15:32.854Z,100016.41
2018-02-20T10:17:59.106Z,100018.91
2018-02-20T10:20:26.112Z,100012.34
2018-02-20T10:22:52.371Z,100002.03
2018-02-20T10:25:19.359Z,100024.07
2018-02-20T10:27:45.605Z,100024.46
2018-02-20T10:30:11.866Z,100018.88
2018-02-20T10:32:38.119Z,100012.47
2018-02-20T10:35:05.104Z,100020.05
2018-02-20T10:37:31.341Z,100020.61
2018-02-20T10:39:57.651Z,100011.77
2018-02-20T10:42:23.981Z,100013.45
2018-02-20T10:44:50.283Z,100016.16
2018-02-20T10:47:17.350Z,100010.16
2018-02-20T10:49:43.673Z,100011.63
2018-02-20T10:52:09.994Z,100004.33
2018-02-20T10:54:37.073Z,100012.38
2018-02-20T10:57:03.394Z,100010.63
2018-02-20T10:59:29.692Z,100012.52
2018-02-20T11:01:56.760Z,100008.53
2018-02-20T11:04:23.115Z,100002.60
2018-02-20T11:06:49.425Z,100007.11
2018-02-20T11:09:15.743Z,100003.63
2018-02-20T11:11:42.767Z,100002.42
2018-02-20T11:14:09.089Z,100003.63
2018-02-20T11:16:35.429Z,100002.02
2018-02-20T11:19:01.761Z,99996.90
2018-02-20T11:21:28.058Z,99999.28
2018-02-20T11:23:54.421Z,99999.14
2018-02-20T11:26:20.725Z,99996.53
2018-02-20T11:28:47.711Z,99988.02
2018-02-20T11:31:14.855Z,99983.84
2018-02-20T11:33:41.163Z,99983.11
2018-02-20T11:36:07.636Z,99983.04
2018-02-20T11:38:34.678Z,99989.80
2018-02-20T11:41:01.732Z,99977.86
2018-02-20T11:43:28.830Z,99986.83
2018-02-20T11:45:55.209Z,99979.55
2018-02-20T11:48:22.316Z,99982.30
2018-02-20T11:50:48.672Z,99984.19
2018-02-20T11:53:15.009Z,99981.05
2018-02-20T11:55:41.406Z,99978.80
2018-02-20T11:58:07.709Z,99980.29
2018-02-20T12:00:34.057Z,99977.04
2018-02-20T12:03:00.641Z,99968.77
2018-02-20T12:05:26.969Z,99970.17
2018-02-20T12:07:53.306Z,99971.92
2018-02-20T12:10:19.619Z,99967.08
2018-02-20T12:12:45.955Z,99960.88
2018-02-20T12:15:12.331Z,99965.47
2018-02-20T12:17:38.664Z,99963.41
2018-02-20T12:20:04.997Z,99962.80
2018-02-20T12:22:31.347Z,99958.56
2018-02-20T12:24:57.684Z,99956.27
2018-02-20T12:27:24.066Z,99957.77
2018-02-20T12:29:51.147Z,99951.64
2018-02-20T12:32:17.518Z,99954.72
2018-02-20T12:34:43.814Z,99956.85
2018-02-20T12:37:10.206Z,99961.55
2018-02-20T12:39:36.533Z,99953.55
2018-02-20T12:42:02.883Z,99956.24
2018-02-20T12:44:34.354Z,99954.65
2018-02-20T12:47:00.681Z,99954.55
2018-02-20T12:49:27.010Z,99944.86
2018-02-20T12:51:53.331Z,99948.98
2018-02-20T12:54:20.407Z,99951.54
2018-02-20T12:56:46.736Z,99949.20
2018-02-20T12:59:13.106Z,99945.98
2018-02-20T13:01:39.444Z,99950.24
2018-02-20T13:04:05.808Z,99949.36
2018-02-20T13:06:32.128Z,99953.70
2018-02-20T13:08:58.535Z,99948.64
2018-02-20T13:11:24.823Z,99951.00
2018-02-20T13:13:51.152Z,99952.28
2018-02-20T13:16:17.481Z,99947.95
2018-02-20T13:18:43.835Z,99941.35
2018-02-20T13:21:10.196Z,99947.49
2018-02-20T13:23:36.544Z,99946.98
2018-02-20T13:26:03.608Z,99943.13
2018-02-20T13:28:29.961Z,99942.92
2018-02-20T13:30:56.276Z,99943.47
2018-02-20T13:33:22.596Z,99937.41
2018-02-20T13:35:48.998Z,99936.30
2018-02-20T13:38:15.338Z,99939.41
2018-02-20T13:40:41.662Z,99938.98
2018-02-20T13:43:07.992Z,99939.70
2018-02-20T13:45:34.326Z,99940.47
2018-02-20T13:48:01.419Z,99934.75
2018-02-20T13:50:27.712Z,99933.54
2018-02-20T13:52:54.040Z,99933.64
2018-02-20T13:55:28.555Z,99930.73
2018-02-20T13:57:54.866Z,99928.98
2018-02-20T14:00:21.245Z,99924.11
2018-02-20T14:02:48.406Z,99931.23
2018-02-20T14:05:15.523Z,99932.48
2018-02-20T14:07:41.845Z,99934.03
2018-02-20T14:10:08.152Z,99943.81
2018-02-20T14:12:34.471Z,99940.59
2018-02-20T14:15:00.820Z,99937.59
2018-02-20T14:17:27.132Z,99939.28
2018-02-20T14:19:53.507Z,99947.53
2018-02-20T14:22:19.918Z,99938.86
2018-02-20T14:24:46.229Z,99936.88
2018-02-20T14:27:12.552Z,99946.91
2018-02-20T14:29:38.878Z,99945.01
2018-02-20T14:32:05.212Z,99943.47
2018-02-20T14:34:31.570Z,99947.27
2018-02-20T14:36:57.924Z,99947.21
2018-02-20T14:39:24.290Z,99938.69
2018-02-20T14:41:51.384Z,99939.05
2018-02-20T14:44:17.785Z,99940.13
2018-02-20T14:46:44.140Z,99950.20
2018-02-20T14:49:10.557Z,99946.83
2018-02-20T14:51:37.699Z,99950.94
2018-02-20T14:54:04.163Z,99956.44
2018-02-20T14:56:30.503Z,99953.31
2018-02-20T14:58:56.869Z,99960.64
2018-02-20T15:01:23.244Z,99962.17
2018-02-20T15:03:49.632Z,99955.21
2018-02-20T15:06:16.038Z,99957.98
2018-02-20T15:08:42.645Z,99962.75
2018-02-20T15:11:09.012Z,99959.72
2018-02-20T15:13:35.344Z,99966.93
2018-02-20T15:16:01.689Z,99967.47
2018-02-20T15:18:28.043Z,99966.23
2018-02-20T15:20:56.018Z,99977.06
2018-02-20T15:23:23.186Z,99971.52
2018-02-20T15:25:49.588Z,99981.03
2018-02-20T15:28:15.957Z,99977.28
2018-02-20T15:30:42.404Z,99986.73
2018-02-20T15:33:08.812Z,99991.91
2018-02-20T15:35:35.182Z,100000.75
2018-02-20T15:38:02.325Z,100004.34
2018-02-20T15:40:28.697Z,100012.03
2018-02-20T15:42:55.036Z,100008.86
2018-02-20T15:45:21.367Z,100008.72
2018-02-20T15:47:48.499Z,100007.38
2018-02-20T15:50:14.884Z,100014.84
2018-02-20T15:52:41.208Z,100019.37
2018-02-20T15:55:07.918Z,100030.28
2018-02-20T15:57:34.254Z,100026.59
2018-02-20T16:00:00.639Z,100019.21
2018-02-20T16:02:27.038Z,100029.43
2018-02-20T16:04:53.470Z,100029.78
2018-02-20T16:07:20.648Z,100036.79
2018-02-20T16:09:47.217Z,100042.83
2018-02-20T16:12:13.581Z,100045.93
2018-02-20T16:14:39.969Z,100049.22
2018-02-20T16:17:06.343Z,100045.92
2018-02-20T16:19:33.419Z,100058.00
2018-02-20T16:21:59.787Z,100064.27
2018-02-20T16:26:59.282Z,100065.23
2018-02-20T16:29:25.616Z,100065.77
2018-02-20T16:31:51.996Z,100063.83
2018-02-20T16:34:18.328Z,100064.98
2018-02-20T16:36:44.760Z,100072.56
2018-02-20T16:39:11.920Z,100069.94
2018-02-20T16:41:39.158Z,100073.59
2018-02-20T16:44:06.283Z,100079.41
2018-02-20T16:46:32.654Z,100078.27
2018-02-20T16:48:59.743Z,100077.70
2018-02-20T16:51:26.126Z,100071.44
2018-02-20T16:53:52.518Z,100074.20
2018-02-20T16:56:18.878Z,100082.06
2018-02-20T16:58:45.266Z,100081.84
2018-02-20T17:01:11.944Z,100078.84
2018-02-20T17:03:40.974Z,100081.97
2018-02-20T17:06:07.438Z,100093.80
2018-02-20T17:08:33.754Z,100088.39
2018-02-20T17:11:00.119Z,100092.66
2018-02-20T17:13:26.511Z,100095.23
2018-02-20T17:15:53.110Z,100089.66
2018-02-20T17:18:19.533Z,100093.15
2018-02-20T17:20:45.949Z,100088.50
2018-02-20T17:23:12.314Z,100100.36
2018-02-20T17:25:38.726Z,100107.73
2018-02-20T17:28:05.134Z,100097.97
2018-02-20T17:30:32.254Z,100098.19
2018-02-20T17:32:59.483Z,100101.27
2018-02-20T17:35:25.892Z,100102.44
2018-02-20T17:37:52.247Z,100111.23
2018-02-20T17:40:18.602Z,100115.22
2018-02-20T17:42:44.957Z,100118.53
2018-02-20T17:45:11.337Z,100120.41
2018-02-20T17:47:37.725Z,100118.22
2018-02-20T17:50:04.105Z,100122.14
2018-02-20T17:52:30.484Z,100123.90
2018-02-20T17:54:56.870Z,100118.30
2018-02-20T17:57:23.223Z,100121.58
2018-02-20T17:59:49.560Z,100126.25
2018-02-20T18:02:16.701Z,100123.63
2018-02-20T18:04:43.785Z,100128.22
2018-02-20T18:07:16.997Z,100134.16
2018-02-20T18:09:43.377Z,100131.98
2018-02-20T18:12:09.770Z,100130.46
2018-02-20T18:14:36.172Z,100143.14
2018-02-20T18:17:02.547Z,100143.75
2018-02-20T18:19:28.915Z,100141.57
2018-02-20T18:21:55.291Z,100142.87
2018-02-20T18:24:21.644Z,100142.25
2018-02-20T18:26:48.039Z,100147.41
2018-02-20T18:29:14.362Z,100146.20
2018-02-20T18:31:40.710Z,100140.78
2018-02-20T18:34:07.108Z,100148.09
2018-02-20T18:36:34.244Z,100143.67
2018-02-20T18:39:00.586Z,100141.28
2018-02-20T18:41:27.722Z,100151.30
2018-02-20T18:43:54.714Z,100152.71
2018-02-20T18:46:21.169Z,100167.80
2018-02-20T18:48:47.656Z,100166.64
2018-02-20T18:51:14.084Z,100168.19
2018-02-20T18:53:40.428Z,100165.95
2018-02-20T18:56:07.626Z,100163.25
2018-02-20T18:58:33.988Z,100160.74
2018-02-20T19:01:01.123Z,100173.63
2018-02-20T19:03:27.487Z,100196.30
2018-02-20T19:05:54.586Z,100179.34
2018-02-20T19:08:20.954Z,100189.87
2018-02-20T19:10:48.393Z,100185.75
2018-02-20T19:13:15.128Z,100187.21
2018-02-20T19:15:41.818Z,100198.78
2018-02-20T19:18:08.220Z,100200.30
2018-02-20T19:20:34.679Z,100194.47
2018-02-20T19:23:01.849Z,100201.76
2018-02-20T19:25:28.416Z,100199.94
2018-02-20T19:27:54.938Z,100207.72
2018-02-20T19:30:21.302Z,100201.25
2018-02-20T19:32:48.144Z,100196.58
2018-02-20T19:35:14.662Z,100203.73
2018-02-20T19:37:41.123Z,100210.22
2018-02-20T19:40:09.085Z,100208.28
2018-02-20T19:42:35.428Z,100205.67
2018-02-20T19:45:02.091Z,100209.91
2018-02-20T19:47:29.614Z,100206.21
2018-02-20T19:49:56.070Z,100211.52
2018-02-20T19:52:23.186Z,100207.95
2018-02-20T19:54:49.571Z,100213.56
2018-02-20T20:00:13.262Z,100204.84
2018-02-20T20:02:50.182Z,100199.58
2018-02-20T20:07:56.945Z,100202.95
2018-02-20T20:10:23.333Z,100209.69
2018-02-20T20:12:49.720Z,100212.55
2018-02-20T20:15:16.837Z,100213.54
2018-02-20T20:17:43.921Z,100212.70
2018-02-20T20:20:10.264Z,100200.28
2018-02-20T20:22:36.618Z,100207.22
2018-02-20T20:25:02.971Z,100213.61
2018-02-20T20:27:31.041Z,100210.58
2018-02-20T20:29:58.200Z,100222.89
2018-02-20T20:32:25.305Z,100222.52
2018-02-20T20:34:51.637Z,100226.70
2018-02-20T20:37:17.977Z,100222.63
2018-02-20T20:39:44.307Z,100232.11
2018-02-20T20:42:10.747Z,100233.16
2018-02-20T20:44:37.206Z,100232.78
2018-02-20T20:47:04.384Z,100231.56
2018-02-20T20:49:30.708Z,100232.50
2018-02-20T20:51:57.051Z,100234.86
2018-02-20T20:54:23.431Z,100237.37
2018-02-20T20:56:49.761Z,100233.81
2018-02-20T20:59:16.115Z,100236.55
2018-02-20T21:01:43.241Z,100245.01
2018-02-20T21:04:09.594Z,100240.18
2018-02-20T21:06:36.730Z,100240.22
2018-02-20T21:09:03.127Z,100238.94
2018-02-20T21:11:29.487Z,100243.50
2018-02-20T21:13:55.798Z,100239.70
2018-02-20T21:16:22.676Z,100243.84
2018-02-20T21:18:49.018Z,100245.33
2018-02-20T21:21:16.137Z,100245.84
2018-02-20T21:23:42.480Z,100244.20
2018-02-20T21:26:08.896Z,100238.28
2018-02-20T21:28:35.228Z,100245.65
2018-02-20T21:31:01.532Z,100248.52
2018-02-20T21:33:27.862Z,100245.95
2018-02-20T21:35:54.187Z,100246.38
2018-02-20T21:38:20.496Z,100239.41
2018-02-20T21:40:46.834Z,100243.74
2018-02-20T21:43:13.167Z,100244.23
2018-02-20T21:45:39.554Z,100243.15
2018-02-20T21:48:05.841Z,100243.69
2018-02-20T21:50:32.157Z,100249.45
2018-02-20T21:52:59.258Z,100245.38
2018-02-20T21:55:25.720Z,100250.17
2018-02-20T21:57:52.827Z,100248.87
2018-02-20T22:00:19.163Z,100251.66
2018-02-20T22:02:45.536Z,100249.86
2018-02-20T22:05:12.686Z,100247.00
2018-02-20T22:07:39.802Z,100246.75
2018-02-20T22:10:06.890Z,100247.48
2018-02-20T22:12:33.952Z,100246.03
2018-02-20T22:15:00.272Z,100246.17
2018-02-20T22:17:27.333Z,100248.91
2018-02-20T22:19:53.671Z,100252.05
2018-02-20T22:22:19.975Z,100255.11
2018-02-20T22:24:47.081Z,100257.73
2018-02-20T22:27:13.379Z,100255.22
2018-02-20T22:29:39.751Z,100259.32
2018-02-20T22:32:06.069Z,100255.60
2018-02-20T22:34:32.411Z,100261.57
2018-02-20T22:36:58.727Z,100264.91
2018-02-20T22:39:25.121Z,100262.58
2018-02-20T22:41:52.198Z,100261.16
2018-02-20T22:44:18.544Z,100267.09
2018-02-20T22:46:44.876Z,100259.19
2018-02-20T22:49:11.316Z,100256.52
2018-02-20T22:51:37.702Z,100258.42
2018-02-20T22:54:04.826Z,100251.38
2018-02-20T22:56:31.239Z,100255.58
2018-02-20T22:58:57.622Z,100254.20
2018-02-20T23:01:24.806Z,100256.22
2018-02-20T23:03:51.137Z,100258.14
2018-02-20T23:06:17.447Z,100259.28
2018-02-20T23:08:43.794Z,100258.90
2018-02-20T23:11:10.159Z,100253.84
2018-02-20T23:13:36.509Z,100259.82
2018-02-20T23:16:02.850Z,100272.30
2018-02-20T23:18:29.900Z,100264.05
2018-02-20T23:20:56.944Z,100260.86
2018-02-20T23:23:24.024Z,100270.67
2018-02-20T23:25:50.331Z,100270.92
2018-02-20T23:28:17.373Z,100277.71
2018-02-20T23:30:44.444Z,100277.30
2018-02-20T23:33:10.898Z,100279.36
2018-02-20T23:35:37.228Z,100280.60
2018-02-20T23:38:03.538Z,100283.59
2018-02-20T23:40:29.876Z,100283.52
2018-02-20T23:42:56.260Z,100289.08
2018-02-20T23:45:22.588Z,100286.17
2018-02-20T23:47:48.930Z,100293.80
2018-02-20T23:50:15.252Z,100291.60
2018-02-20T23:52:42.353Z,100296.95
2018-02-20T23:55:08.676Z,100292.70
2018-02-20T23:57:35.133Z,100291.25
